Time;durP1;ratioP1;P1;durP2;ratioP2;P2;SDS_P1;SDS_P2;PMS_P1;PMS_P2;Temp;Humidity;BMP_temperature;BMP_pressure;BME280_temperature;BME280_humidity;BME280_pressure;Samples;Min_cycle;Max_cycle;Signal;HPM_P1;HPM_P2
2021/04/24 00:00:29;;;;;;;17.77;7.85;;;1.50;89.90;;;;;;5055977;28;20035;-69
2021/04/24 00:02:55;;;;;;;18.00;7.55;;;1.50;89.70;;;;;;5046697;28;21677;-69
2021/04/24 00:05:30;;;;;;;22.38;7.38;;;1.40;89.50;;;;;;5051658;28;20090;-69
2021/04/24 00:08:03;;;;;;;24.30;8.15;;;1.40;89.90;;;;;;5063711;28;20035;-69
2021/04/24 00:10:31;;;;;;;19.58;8.50;;;1.40;90.00;;;;;;5056480;28;20036;-69
2021/04/24 00:12:57;;;;;;;22.58;8.40;;;1.50;89.90;;;;;;5061097;28;20500;-69
2021/04/24 00:15:23;;;;;;;21.60;9.40;;;1.50;89.80;;;;;;5056579;28;20020;-70
2021/04/24 00:17:49;;;;;;;31.20;10.23;;;1.60;90.40;;;;;;5062620;28;20032;-69
2021/04/24 00:20:17;;;;;;;24.42;9.70;;;1.60;90.90;;;;;;5057279;28;20024;-69
2021/04/24 00:22:44;;;;;;;21.42;10.05;;;1.60;91.50;;;;;;5059761;28;20055;-69
2021/04/24 00:25:11;;;;;;;23.52;10.45;;;1.70;91.50;;;;;;5059792;28;20028;-69
2021/04/24 00:27:36;;;;;;;28.98;10.43;;;1.80;91.60;;;;;;5060792;28;20041;-69
2021/04/24 00:30:03;;;;;;;21.83;10.13;;;1.80;91.60;;;;;;5062571;28;20036;-70
2021/04/24 00:32:29;;;;;;;24.30;9.55;;;1.70;91.00;;;;;;5060138;28;20016;-70
2021/04/24 00:34:55;;;;;;;24.38;10.02;;;1.60;90.40;;;;;;5059925;28;20575;-69
2021/04/24 00:37:20;;;;;;;21.05;9.70;;;1.50;90.30;;;;;;5060040;28;20044;-69
2021/04/24 00:39:46;;;;;;;22.20;8.48;;;1.50;90.20;;;;;;5059893;28;20035;-69
2021/04/24 00:42:11;;;;;;;23.25;9.73;;;1.40;89.60;;;;;;5060985;28;20032;-69
2021/04/24 00:44:46;;;;;;;21.52;10.40;;;1.40;90.00;;;;;;5059854;28;20107;-69
2021/04/24 00:47:12;;;;;;;27.48;9.85;;;1.40;91.00;;;;;;5063068;28;20028;-69
2021/04/24 00:49:38;;;;;;;25.27;9.77;;;1.30;91.10;;;;;;5055267;28;20367;-69
2021/04/24 00:52:04;;;;;;;21.80;9.10;;;1.30;90.90;;;;;;5060553;28;20048;-69
2021/04/24 00:54:29;;;;;;;29.23;10.27;;;1.30;90.90;;;;;;5057596;28;20056;-69
2021/04/24 00:56:55;;;;;;;25.45;9.40;;;1.40;90.80;;;;;;5061545;28;20687;-69
2021/04/24 00:59:21;;;;;;;24.20;9.48;;;1.40;91.30;;;;;;5055564;28;20036;-69
2021/04/24 01:01:47;;;;;;;23.45;9.73;;;1.40;91.10;;;;;;5060394;28;20079;-69
2021/04/24 01:04:12;;;;;;;19.95;9.25;;;1.40;91.10;;;;;;5063684;28;20127;-68
2021/04/24 01:06:39;;;;;;;24.73;10.77;;;1.40;91.50;;;;;;5060344;28;20037;-69
2021/04/24 01:09:05;;;;;;;31.83;10.40;;;1.40;91.90;;;;;;5061761;28;20059;-69
2021/04/24 01:11:31;;;;;;;25.40;9.70;;;1.40;92.00;;;;;;5068168;28;20048;-68
2021/04/24 01:13:56;;;;;;;28.15;10.38;;;1.30;91.80;;;;;;5063217;28;20052;-69
2021/04/24 01:16:22;;;;;;;21.67;8.93;;;1.20;91.60;;;;;;5067354;28;20055;-69
2021/04/24 01:18:48;;;;;;;28.05;9.90;;;1.10;91.20;;;;;;5064535;28;20465;-69
2021/04/24 01:21:16;;;;;;;25.85;9.57;;;1.10;91.40;;;;;;5060160;28;20032;-68
2021/04/24 01:23:42;;;;;;;22.17;9.98;;;1.10;91.60;;;;;;5054681;28;20025;-69
2021/04/24 01:26:08;;;;;;;22.98;10.73;;;1.10;92.00;;;;;;5058665;28;20032;-69
2021/04/24 01:28:34;;;;;;;20.77;9.52;;;1.00;91.80;;;;;;5079156;28;20036;-69
2021/04/24 01:31:00;;;;;;;23.75;9.70;;;1.10;91.50;;;;;;5062672;28;20028;-69
2021/04/24 01:33:26;;;;;;;24.50;10.00;;;1.00;91.40;;;;;;5055834;28;20036;-68
2021/04/24 01:35:52;;;;;;;21.60;8.93;;;1.00;91.80;;;;;;5067504;28;20058;-70
2021/04/24 01:38:18;;;;;;;23.75;9.63;;;1.10;92.20;;;;;;5062239;28;20399;-70
2021/04/24 01:40:44;;;;;;;31.23;9.27;;;1.00;92.30;;;;;;5056777;28;20447;-70
2021/04/24 01:43:10;;;;;;;33.42;10.20;;;1.10;92.50;;;;;;5059785;28;20029;-70
2021/04/24 01:45:36;;;;;;;30.75;11.35;;;1.00;92.50;;;;;;5055159;28;20029;-69
2021/04/24 01:48:05;;;;;;;38.55;11.52;;;1.00;92.90;;;;;;5050438;28;20100;-69
2021/04/24 01:50:33;;;;;;;33.60;11.32;;;1.10;93.10;;;;;;5056638;28;20020;-70
2021/04/24 01:53:02;;;;;;;31.48;11.95;;;1.00;93.10;;;;;;5083710;28;20033;-70
2021/04/24 01:55:30;;;;;;;34.88;11.57;;;1.00;93.10;;;;;;5065950;28;20141;-70
2021/04/24 01:57:58;;;;;;;37.05;12.10;;;1.00;93.20;;;;;;5068919;28;20040;-70
2021/04/24 02:00:39;;;;;;;33.70;12.63;;;1.10;93.20;;;;;;5055610;28;20024;-70
2021/04/24 02:03:07;;;;;;;32.65;11.10;;;1.10;93.40;;;;;;5066670;28;20024;-69
2021/04/24 02:05:34;;;;;;;23.23;11.25;;;1.00;93.10;;;;;;5063542;28;20147;-70
2021/04/24 02:08:08;;;;;;;24.77;11.07;;;0.90;92.60;;;;;;5059520;28;20032;-70
2021/04/24 02:10:35;;;;;;;30.80;11.25;;;0.90;92.80;;;;;;5063002;28;20039;-70
2021/04/24 02:13:04;;;;;;;27.33;10.45;;;0.90;93.10;;;;;;5058984;28;20124;-70
2021/04/24 02:15:30;;;;;;;25.90;12.18;;;1.00;93.20;;;;;;5062699;28;20017;-70
2021/04/24 02:17:55;;;;;;;33.58;12.80;;;0.90;93.10;;;;;;5062865;28;20042;-70
2021/04/24 02:20:22;;;;;;;40.95;11.90;;;0.90;93.10;;;;;;5059246;28;20033;-70
2021/04/24 02:22:48;;;;;;;35.20;13.18;;;0.80;93.30;;;;;;5061162;28;20394;-70
2021/04/24 02:25:16;;;;;;;36.58;12.10;;;0.80;93.30;;;;;;5062173;28;20036;-69
2021/04/24 02:27:42;;;;;;;27.02;10.52;;;0.80;93.40;;;;;;5048573;28;20029;-70
2021/04/24 02:30:10;;;;;;;24.15;11.00;;;0.70;92.90;;;;;;5060178;28;20080;-70
2021/04/24 02:32:37;;;;;;;34.10;12.35;;;0.60;92.40;;;;;;5073364;28;20103;-70
2021/04/24 02:35:05;;;;;;;34.90;11.52;;;0.60;92.70;;;;;;5051326;28;20032;-69
2021/04/24 02:37:30;;;;;;;38.33;12.93;;;0.70;93.10;;;;;;5046938;28;20024;-69
2021/04/24 02:39:56;;;;;;;32.50;12.32;;;0.70;93.30;;;;;;5061530;28;20024;-70
2021/04/24 02:42:28;;;;;;;29.90;12.10;;;0.70;93.30;;;;;;5060088;28;20897;-69
2021/04/24 02:44:57;;;;;;;29.58;11.40;;;0.80;93.10;;;;;;5055276;28;20029;-69
2021/04/24 02:47:23;;;;;;;26.77;10.48;;;0.80;93.10;;;;;;5058480;28;20048;-70
2021/04/24 02:49:48;;;;;;;40.40;12.55;;;0.90;92.90;;;;;;5065485;28;20028;-69
2021/04/24 02:52:14;;;;;;;26.35;10.30;;;1.00;92.90;;;;;;5069242;28;20025;-70
2021/04/24 02:54:40;;;;;;;31.38;11.23;;;1.00;92.80;;;;;;5060882;28;20020;-70
2021/04/24 02:57:06;;;;;;;35.25;10.73;;;1.10;92.70;;;;;;5054272;28;20413;-70
2021/04/24 02:59:32;;;;;;;33.50;12.48;;;1.20;92.70;;;;;;5059949;28;20028;-70
2021/04/24 03:01:58;;;;;;;39.45;12.70;;;1.30;92.60;;;;;;5061763;28;20059;-69
2021/04/24 03:04:24;;;;;;;32.10;11.05;;;1.40;92.80;;;;;;5058483;28;20034;-70
2021/04/24 03:06:50;;;;;;;32.88;11.93;;;1.60;93.30;;;;;;5050301;28;20507;-70
2021/04/24 03:09:16;;;;;;;39.50;12.80;;;1.70;93.50;;;;;;5059739;28;20029;-70
2021/04/24 03:11:43;;;;;;;32.00;13.15;;;1.80;93.70;;;;;;5067293;28;20856;-70
2021/04/24 03:14:08;;;;;;;30.30;11.82;;;1.80;93.70;;;;;;5072271;28;20614;-70
2021/04/24 03:16:34;;;;;;;39.30;12.60;;;1.80;93.60;;;;;;5058269;28;20111;-69
2021/04/24 03:19:01;;;;;;;26.65;11.93;;;1.90;93.60;;;;;;5056162;28;20103;-70
2021/04/24 03:21:27;;;;;;;32.67;12.15;;;1.90;93.50;;;;;;5059367;28;20035;-70
2021/04/24 03:23:54;;;;;;;28.35;10.98;;;1.90;93.50;;;;;;5053271;28;20029;-70
2021/04/24 03:26:21;;;;;;;32.47;11.50;;;1.80;93.40;;;;;;5068916;28;20389;-70
2021/04/24 03:28:46;;;;;;;24.77;10.95;;;1.70;93.50;;;;;;5054617;28;20029;-70
2021/04/24 03:31:12;;;;;;;24.42;11.35;;;1.70;93.40;;;;;;5057594;28;20395;-70
2021/04/24 03:33:39;;;;;;;26.05;11.00;;;1.60;93.50;;;;;;5060713;28;20427;-69
2021/04/24 03:36:05;;;;;;;23.20;10.30;;;1.50;93.70;;;;;;5057902;28;20024;-69
2021/04/24 03:38:31;;;;;;;23.50;10.60;;;1.60;93.90;;;;;;5050915;28;20028;-70
2021/04/24 03:40:57;;;;;;;28.83;11.85;;;1.40;93.80;;;;;;5064596;28;20704;-70
2021/04/24 03:43:23;;;;;;;31.20;11.00;;;1.40;93.90;;;;;;5050869;28;20040;-70
2021/04/24 03:45:48;;;;;;;31.90;11.82;;;1.40;94.00;;;;;;5062523;28;20036;-70
2021/04/24 03:48:14;;;;;;;32.00;12.23;;;1.40;94.10;;;;;;5061331;28;20029;-70
2021/04/24 03:50:40;;;;;;;29.67;12.43;;;1.40;94.20;;;;;;5060041;28;20389;-70
2021/04/24 03:53:06;;;;;;;39.28;13.07;;;1.40;94.20;;;;;;5053508;28;20025;-70
2021/04/24 03:55:31;;;;;;;35.42;12.02;;;1.40;94.30;;;;;;5072534;28;20098;-70
2021/04/24 03:57:58;;;;;;;34.10;13.25;;;1.40;94.40;;;;;;5065951;28;20020;-70
2021/04/24 04:00:26;;;;;;;42.47;14.18;;;1.40;94.50;;;;;;5052686;28;20036;-70
2021/04/24 04:02:56;;;;;;;42.72;11.18;;;1.40;94.40;;;;;;5058082;28;20044;-70
2021/04/24 04:05:24;;;;;;;38.17;13.30;;;1.30;94.50;;;;;;5060124;28;20031;-69
2021/04/24 04:07:49;;;;;;;34.60;13.27;;;1.30;94.50;;;;;;5066873;28;20036;-70
2021/04/24 04:10:16;;;;;;;32.03;11.95;;;1.20;94.40;;;;;;5064399;28;20489;-70
2021/04/24 04:12:43;;;;;;;36.35;11.85;;;1.20;94.30;;;;;;5061623;28;20056;-70
2021/04/24 04:15:10;;;;;;;40.40;12.57;;;1.20;94.30;;;;;;5056792;28;20103;-70
2021/04/24 04:17:39;;;;;;;44.35;12.63;;;1.30;94.50;;;;;;5054777;28;20377;-70
2021/04/24 04:20:10;;;;;;;38.33;12.32;;;1.40;94.50;;;;;;5049869;28;20035;-70
2021/04/24 04:22:37;;;;;;;38.25;12.57;;;1.60;94.60;;;;;;5050765;28;20766;-62
2021/04/24 04:25:04;;;;;;;40.45;12.32;;;1.60;94.50;;;;;;5053508;28;20033;-62
2021/04/24 04:27:30;;;;;;;35.88;12.40;;;1.80;94.70;;;;;;5060882;28;20068;-62
2021/04/24 04:29:56;;;;;;;30.95;12.13;;;1.80;94.60;;;;;;5047887;28;20064;-62
2021/04/24 04:32:22;;;;;;;33.15;12.15;;;1.90;94.50;;;;;;5066769;28;20028;-62
2021/04/24 04:34:47;;;;;;;30.48;12.02;;;2.00;94.40;;;;;;5052311;28;20394;-62
2021/04/24 04:37:13;;;;;;;33.90;11.23;;;2.10;94.30;;;;;;5050862;28;20210;-62
2021/04/24 04:39:40;;;;;;;32.25;11.75;;;2.20;94.20;;;;;;5053994;28;20124;-62
2021/04/24 04:42:06;;;;;;;26.13;11.25;;;2.30;94.10;;;;;;5057548;28;20059;-62
2021/04/24 04:44:32;;;;;;;21.75;10.23;;;2.30;93.70;;;;;;5053342;28;20111;-63
2021/04/24 04:46:58;;;;;;;29.98;10.55;;;2.40;93.70;;;;;;5053484;28;20119;-62
2021/04/24 04:49:23;;;;;;;16.63;9.30;;;2.40;93.60;;;;;;5056634;28;20115;-62
2021/04/24 04:51:49;;;;;;;19.27;9.43;;;2.50;93.50;;;;;;5078956;28;20034;-62
2021/04/24 04:54:15;;;;;;;26.00;8.95;;;2.50;93.30;;;;;;5067882;28;20025;-62
2021/04/24 04:56:40;;;;;;;20.95;9.13;;;2.60;93.40;;;;;;5065642;28;20024;-62
2021/04/24 04:59:06;;;;;;;21.90;8.95;;;2.60;93.30;;;;;;5057097;28;20032;-62
2021/04/24 05:01:32;;;;;;;21.40;8.45;;;2.70;93.30;;;;;;5064288;28;20256;-62
2021/04/24 05:03:57;;;;;;;18.10;8.90;;;2.70;93.10;;;;;;5076331;28;20465;-62
2021/04/24 05:06:23;;;;;;;21.95;8.35;;;2.70;93.20;;;;;;5065175;28;20039;-63
2021/04/24 05:08:48;;;;;;;18.80;9.02;;;2.70;93.20;;;;;;5055996;28;20013;-62
2021/04/24 05:11:14;;;;;;;20.52;8.48;;;2.80;93.30;;;;;;5063668;28;20029;-62
2021/04/24 05:13:42;;;;;;;19.05;8.07;;;2.90;93.30;;;;;;5059082;28;20020;-62
2021/04/24 05:16:08;;;;;;;18.05;8.43;;;2.90;93.30;;;;;;5056456;28;20085;-62
2021/04/24 05:18:34;;;;;;;20.30;8.38;;;3.10;93.40;;;;;;5057577;28;20032;-62
2021/04/24 05:21:00;;;;;;;17.10;7.88;;;3.20;93.20;;;;;;5061916;28;20130;-62
2021/04/24 05:23:25;;;;;;;19.88;8.00;;;3.30;93.10;;;;;;5060378;28;20029;-62
2021/04/24 05:25:51;;;;;;;18.88;7.20;;;3.40;93.00;;;;;;5059257;28;20029;-62
2021/04/24 05:28:16;;;;;;;17.83;8.00;;;3.40;92.90;;;;;;5051386;28;20056;-62
2021/04/24 05:30:42;;;;;;;23.17;8.85;;;3.50;92.80;;;;;;5065212;28;20075;-61
2021/04/24 05:33:08;;;;;;;19.98;7.85;;;3.60;92.60;;;;;;5042603;28;20079;-62
2021/04/24 05:35:33;;;;;;;14.43;6.97;;;3.60;92.60;;;;;;5017585;28;20021;-62
2021/04/24 05:38:00;;;;;;;19.52;7.53;;;3.70;92.40;;;;;;5018762;28;20547;-62
2021/04/24 05:40:26;;;;;;;15.63;7.28;;;3.70;92.30;;;;;;5018902;28;20116;-62
2021/04/24 05:42:52;;;;;;;18.42;7.72;;;3.80;92.10;;;;;;5022258;28;20038;-62
2021/04/24 05:45:18;;;;;;;16.38;7.28;;;3.80;92.10;;;;;;5024747;28;20432;-62
2021/04/24 05:47:47;;;;;;;12.05;6.70;;;3.90;92.20;;;;;;5017329;28;20108;-62
2021/04/24 05:50:15;;;;;;;17.83;6.90;;;3.90;91.90;;;;;;5021805;28;20029;-62
2021/04/24 05:52:40;;;;;;;17.63;7.78;;;4.10;92.00;;;;;;5022880;28;20514;-62
2021/04/24 05:55:08;;;;;;;16.17;7.43;;;4.20;91.90;;;;;;5008308;28;20034;-62
2021/04/24 05:57:34;;;;;;;20.15;6.57;;;4.20;91.60;;;;;;5018538;28;20038;-62
2021/04/24 06:00:00;;;;;;;15.45;6.82;;;4.30;91.50;;;;;;5016198;28;20031;-63
2021/04/24 06:02:26;;;;;;;13.55;7.05;;;4.30;91.40;;;;;;5021471;28;20112;-62
2021/04/24 06:04:52;;;;;;;19.95;8.10;;;4.40;91.60;;;;;;5016858;28;20030;-61
2021/04/24 06:07:17;;;;;;;17.83;7.18;;;4.50;91.70;;;;;;5023586;28;20514;-62
2021/04/24 06:09:43;;;;;;;15.52;6.65;;;4.60;91.40;;;;;;5014961;28;20186;-62
2021/04/24 06:12:09;;;;;;;10.27;5.38;;;4.80;91.00;;;;;;5010964;28;20033;-62
2021/04/24 06:14:35;;;;;;;13.10;6.05;;;5.00;90.20;;;;;;5019025;28;20032;-62
2021/04/24 06:17:02;;;;;;;14.13;6.35;;;5.20;89.20;;;;;;5016075;28;20083;-63
2021/04/24 06:19:27;;;;;;;16.60;6.15;;;5.20;88.70;;;;;;5015590;28;20033;-63
2021/04/24 06:21:54;;;;;;;11.63;5.80;;;5.30;88.30;;;;;;5015091;28;20474;-61
2021/04/24 06:24:20;;;;;;;13.77;5.68;;;5.50;88.10;;;;;;5014180;28;20030;-61
2021/04/24 06:26:46;;;;;;;12.80;5.22;;;5.50;87.40;;;;;;5020128;28;20040;-62
2021/04/24 06:29:12;;;;;;;14.45;5.85;;;5.60;87.20;;;;;;5024502;28;20064;-61
2021/04/24 06:31:37;;;;;;;11.13;5.40;;;5.60;86.20;;;;;;5031903;28;20474;-61
2021/04/24 06:34:03;;;;;;;15.05;5.20;;;5.50;86.40;;;;;;5030409;28;20025;-61
2021/04/24 06:36:29;;;;;;;13.23;5.05;;;5.50;86.40;;;;;;5033229;28;20032;-61
2021/04/24 06:38:57;;;;;;;11.50;4.82;;;5.50;86.20;;;;;;5018925;28;20088;-61
2021/04/24 06:41:23;;;;;;;13.13;4.90;;;5.60;86.30;;;;;;5019808;28;20057;-61
2021/04/24 06:43:49;;;;;;;14.18;5.20;;;5.60;85.40;;;;;;5023088;28;20093;-61
2021/04/24 06:46:14;;;;;;;10.52;5.05;;;5.90;86.00;;;;;;5021599;28;20033;-61
2021/04/24 06:48:40;;;;;;;9.18;4.75;;;6.10;85.60;;;;;;5009104;28;20161;-60
2021/04/24 06:51:06;;;;;;;11.82;5.03;;;6.10;84.00;;;;;;5023276;28;20081;-61
2021/04/24 06:53:31;;;;;;;14.43;5.57;;;6.20;84.60;;;;;;5016704;28;20025;-61
2021/04/24 06:55:57;;;;;;;15.88;4.50;;;6.40;83.70;;;;;;5011855;28;20052;-61
2021/04/24 06:58:25;;;;;;;13.25;4.95;;;6.50;83.50;;;;;;5014704;28;20038;-61
2021/04/24 07:00:55;;;;;;;10.75;4.25;;;6.90;82.20;;;;;;5023039;28;20038;-61
2021/04/24 07:03:24;;;;;;;15.27;4.63;;;7.00;81.90;;;;;;5026545;28;20494;-62
2021/04/24 07:05:50;;;;;;;12.93;4.32;;;7.00;81.20;;;;;;5015589;28;20422;-61
2021/04/24 07:08:16;;;;;;;11.50;4.68;;;7.20;80.70;;;;;;5017367;28;20549;-61
2021/04/24 07:10:41;;;;;;;17.88;4.57;;;7.10;80.60;;;;;;5017801;28;20120;-61
2021/04/24 07:13:07;;;;;;;11.98;4.35;;;7.20;80.10;;;;;;5016245;28;21957;-61
2021/04/24 07:15:33;;;;;;;15.52;4.45;;;7.40;80.50;;;;;;5016709;28;20455;-61
2021/04/24 07:17:58;;;;;;;11.77;3.47;;;7.60;78.80;;;;;;5025049;28;20040;-61
2021/04/24 07:20:24;;;;;;;13.50;3.30;;;7.80;77.60;;;;;;5014638;28;20418;-61
2021/04/24 07:22:50;;;;;;;14.15;4.13;;;8.00;76.10;;;;;;5012979;28;20029;-62
2021/04/24 07:25:16;;;;;;;14.50;3.33;;;8.50;76.40;;;;;;5020700;28;20067;-61
2021/04/24 07:27:42;;;;;;;12.68;3.50;;;8.40;75.30;;;;;;5016563;28;20268;-63
2021/04/24 07:30:09;;;;;;;14.23;3.70;;;8.40;73.90;;;;;;5011607;28;20025;-62
2021/04/24 07:32:36;;;;;;;11.07;3.80;;;8.30;74.50;;;;;;5020746;28;20099;-62
2021/04/24 07:35:03;;;;;;;12.57;3.45;;;8.60;73.20;;;;;;5013320;28;20095;-63
2021/04/24 07:37:29;;;;;;;14.50;3.88;;;8.60;73.10;;;;;;5020931;28;20065;-62
2021/04/24 07:39:54;;;;;;;11.77;3.75;;;8.40;74.10;;;;;;5013989;28;20053;-62
2021/04/24 07:42:21;;;;;;;10.70;3.38;;;8.70;73.10;;;;;;5026401;28;20473;-62
2021/04/24 07:44:46;;;;;;;15.48;3.05;;;8.70;72.60;;;;;;5017775;28;20038;-62
2021/04/24 07:47:12;;;;;;;14.18;3.25;;;8.90;72.20;;;;;;5018120;28;20449;-61
2021/04/24 07:49:39;;;;;;;13.48;3.15;;;9.00;71.80;;;;;;5020767;28;20025;-61
2021/04/24 07:52:08;;;;;;;14.90;3.35;;;9.40;71.00;;;;;;5028367;28;20025;-61
2021/04/24 07:54:34;;;;;;;12.43;3.50;;;9.40;71.80;;;;;;5013957;28;20033;-62
2021/04/24 07:57:00;;;;;;;16.52;3.28;;;9.10;72.00;;;;;;5013347;28;20394;-61
2021/04/24 07:59:26;;;;;;;16.08;3.92;;;9.10;69.80;;;;;;5016696;28;20763;-61
2021/04/24 08:01:52;;;;;;;11.57;2.90;;;9.60;69.70;;;;;;5030399;28;20029;-61
2021/04/24 08:04:18;;;;;;;15.75;3.53;;;9.60;69.30;;;;;;5016243;28;20029;-61
2021/04/24 08:06:43;;;;;;;22.25;3.35;;;9.50;68.40;;;;;;5023734;28;20039;-61
2021/04/24 08:09:09;;;;;;;11.23;2.80;;;9.10;67.30;;;;;;5029609;28;20371;-61
2021/04/24 08:11:35;;;;;;;10.00;2.85;;;9.40;66.30;;;;;;5022396;28;20026;-62
2021/04/24 08:14:01;;;;;;;13.65;2.78;;;9.40;67.00;;;;;;5013563;28;20033;-61
2021/04/24 08:16:26;;;;;;;11.18;2.47;;;9.80;64.50;;;;;;5025481;28;20064;-61
2021/04/24 08:18:52;;;;;;;14.20;3.10;;;10.10;62.40;;;;;;5022366;28;20549;-61
2021/04/24 08:21:18;;;;;;;9.85;2.60;;;10.00;62.40;;;;;;5013509;28;20041;-61
2021/04/24 08:23:44;;;;;;;7.45;2.40;;;10.30;60.70;;;;;;5017334;28;20357;-61
2021/04/24 08:26:10;;;;;;;10.35;2.90;;;10.40;60.00;;;;;;5017170;28;20390;-61
2021/04/24 08:28:36;;;;;;;10.50;2.42;;;10.40;60.10;;;;;;5032432;28;20029;-61
2021/04/24 08:31:02;;;;;;;7.60;2.10;;;10.80;59.20;;;;;;5025299;28;20558;-61
2021/04/24 08:33:28;;;;;;;10.05;2.13;;;10.50;58.20;;;;;;5022370;28;20121;-61
2021/04/24 08:35:53;;;;;;;7.80;2.50;;;10.60;57.90;;;;;;5027869;28;20021;-61
2021/04/24 08:38:19;;;;;;;9.52;2.92;;;10.50;58.20;;;;;;5017971;28;21745;-61
2021/04/24 08:40:46;;;;;;;8.27;2.33;;;10.30;59.30;;;;;;5020522;28;20034;-61
2021/04/24 08:43:14;;;;;;;7.32;2.22;;;10.10;58.00;;;;;;5023281;28;20063;-61
2021/04/24 08:45:42;;;;;;;7.07;2.15;;;10.30;56.20;;;;;;5032754;28;20545;-61
2021/04/24 08:48:08;;;;;;;5.38;1.88;;;10.70;55.40;;;;;;5021910;28;20025;-61
2021/04/24 08:50:35;;;;;;;6.07;2.10;;;11.20;53.10;;;;;;5023014;28;20021;-61
2021/04/24 08:53:03;;;;;;;5.03;1.33;;;11.60;52.60;;;;;;5022686;28;20104;-62
2021/04/24 08:55:34;;;;;;;8.82;2.13;;;11.50;49.10;;;;;;5025727;28;20052;-62
2021/04/24 08:58:02;;;;;;;6.18;1.88;;;11.80;50.00;;;;;;5020248;28;20048;-61
2021/04/24 09:00:30;;;;;;;4.15;1.70;;;11.40;49.50;;;;;;5022816;28;20405;-61
2021/04/24 09:02:56;;;;;;;4.25;1.20;;;11.30;49.70;;;;;;5024602;28;20032;-61
2021/04/24 09:05:24;;;;;;;4.70;1.50;;;11.30;48.70;;;;;;5021645;28;20406;-62
2021/04/24 09:07:58;;;;;;;7.68;1.90;;;11.40;48.20;;;;;;5021917;28;20065;-63
2021/04/24 09:10:24;;;;;;;4.30;1.20;;;11.40;47.80;;;;;;5032440;28;20031;-63
2021/04/24 09:12:51;;;;;;;4.03;1.35;;;11.10;46.10;;;;;;5023623;28;20037;-63
2021/04/24 09:15:19;;;;;;;4.47;1.42;;;11.60;45.00;;;;;;5018127;28;20026;-63
2021/04/24 09:17:58;;;;;;;3.70;1.48;;;12.00;43.80;;;;;;5021327;28;20029;-63
2021/04/24 09:20:26;;;;;;;6.13;1.33;;;11.20;45.70;;;;;;5028905;28;20052;-63
2021/04/24 09:23:01;;;;;;;7.45;1.73;;;11.40;44.10;;;;;;5015027;28;20084;-61
2021/04/24 09:25:38;;;;;;;3.83;1.55;;;10.90;44.10;;;;;;5020387;28;20116;-61
2021/04/24 09:28:07;;;;;;;2.80;1.20;;;11.00;43.30;;;;;;5012789;28;20494;-61
2021/04/24 09:30:35;;;;;;;5.03;1.73;;;11.10;44.50;;;;;;5014793;28;20041;-61
2021/04/24 09:33:19;;;;;;;4.50;1.38;;;11.90;43.40;;;;;;5009965;28;20148;-62
2021/04/24 09:35:46;;;;;;;3.78;1.42;;;12.70;39.50;;;;;;5021358;28;20044;-63
2021/04/24 09:38:22;;;;;;;3.97;1.73;;;13.20;38.70;;;;;;5014136;28;20033;-63
2021/04/24 09:41:04;;;;;;;9.00;1.80;;;13.50;39.00;;;;;;5017624;28;20022;-63
2021/04/24 09:43:46;;;;;;;3.92;1.38;;;13.80;38.80;;;;;;5011581;28;20068;-63
2021/04/24 09:46:13;;;;;;;4.93;1.50;;;13.30;40.80;;;;;;5014158;28;20131;-62
2021/04/24 09:48:39;;;;;;;5.22;1.52;;;13.60;39.00;;;;;;5020107;28;20068;-63
2021/04/24 09:51:19;;;;;;;4.03;1.38;;;12.80;39.60;;;;;;5019229;28;20103;-63
2021/04/24 09:53:58;;;;;;;5.70;1.67;;;12.60;40.40;;;;;;5019876;28;20036;-63
2021/04/24 09:56:25;;;;;;;3.05;1.27;;;12.80;39.50;;;;;;5011564;28;20482;-63
2021/04/24 09:58:52;;;;;;;4.70;1.27;;;13.90;39.90;;;;;;5013804;28;20029;-63
2021/04/24 10:01:26;;;;;;;2.50;0.80;;;14.10;32.30;;;;;;5020148;28;20101;-63
2021/04/24 10:03:53;;;;;;;3.00;1.25;;;13.80;29.90;;;;;;5014316;28;20337;-63
2021/04/24 10:06:26;;;;;;;3.60;1.40;;;14.60;33.00;;;;;;5014201;28;20038;-63
2021/04/24 10:09:14;;;;;;;4.53;1.77;;;14.50;34.50;;;;;;5028784;28;20084;-63
2021/04/24 10:12:00;;;;;;;6.30;1.50;;;14.60;36.30;;;;;;5007016;28;20558;-63
2021/04/24 10:14:42;;;;;;;4.75;1.52;;;14.00;36.90;;;;;;5010755;28;20111;-63
2021/04/24 10:17:10;;;;;;;4.40;1.48;;;13.10;38.10;;;;;;5018136;28;20555;-63
2021/04/24 10:19:37;;;;;;;4.05;1.40;;;13.00;37.50;;;;;;5017343;28;20041;-63
2021/04/24 10:22:06;;;;;;;3.78;1.40;;;13.20;38.80;;;;;;5020177;28;20030;-63
2021/04/24 10:24:32;;;;;;;2.95;1.27;;;13.40;36.00;;;;;;5012386;28;20049;-63
2021/04/24 10:26:58;;;;;;;5.75;1.70;;;13.70;33.70;;;;;;5028819;28;20037;-63
2021/04/24 10:29:25;;;;;;;5.28;1.38;;;13.80;36.30;;;;;;5008012;28;20479;-63
2021/04/24 10:31:51;;;;;;;2.45;1.25;;;14.00;36.80;;;;;;5015591;28;20025;-63
2021/04/24 10:34:17;;;;;;;5.15;1.58;;;13.80;35.60;;;;;;5018180;28;20124;-63
2021/04/24 10:36:44;;;;;;;6.00;1.50;;;14.30;36.20;;;;;;5003735;28;20028;-61
2021/04/24 10:39:31;;;;;;;5.80;1.80;;;15.00;36.20;;;;;;5029164;28;20029;-62
2021/04/24 10:42:22;;;;;;;7.78;1.98;;;13.70;36.20;;;;;;5026251;28;20033;-62
2021/04/24 10:44:56;;;;;;;;;;;14.10;36.10;;;;;;5024701;28;20059;-62
2021/04/24 10:47:55;;;;;;;4.78;1.60;;;14.70;33.50;;;;;;5020613;28;20050;-62
2021/04/24 10:50:44;;;;;;;3.90;1.40;;;14.70;33.80;;;;;;5006198;28;21567;-61
2021/04/24 10:53:24;;;;;;;2.63;1.30;;;14.90;34.20;;;;;;5011441;28;20025;-62
2021/04/24 10:55:53;;;;;;;4.07;1.30;;;14.70;33.10;;;;;;5013582;28;20459;-64
2021/04/24 10:58:23;;;;;;;2.75;1.40;;;14.70;34.20;;;;;;5016076;28;20746;-64
2021/04/24 11:01:04;;;;;;;3.10;1.58;;;15.20;33.30;;;;;;5027382;28;20125;-64
2021/04/24 11:03:41;;;;;;;3.17;1.42;;;15.50;35.30;;;;;;5016778;28;20060;-64
2021/04/24 11:06:15;;;;;;;4.72;1.50;;;14.20;35.60;;;;;;5009128;28;20032;-64
2021/04/24 11:08:42;;;;;;;4.22;1.50;;;15.00;32.60;;;;;;5022728;28;20111;-64
2021/04/24 11:11:13;;;;;;;4.35;1.60;;;14.70;33.90;;;;;;5021603;28;20029;-63
2021/04/24 11:13:43;;;;;;;;;;;14.80;33.60;;;;;;5018845;28;20044;-64
2021/04/24 11:16:11;;;;;;;6.00;1.83;;;15.00;34.10;;;;;;5019252;28;19909;-64
2021/04/24 11:18:39;;;;;;;2.63;1.48;;;15.40;32.60;;;;;;5011681;28;20482;-64
2021/04/24 11:21:10;;;;;;;3.40;1.48;;;15.10;32.20;;;;;;5019385;28;20029;-65
2021/04/24 11:23:38;;;;;;;;;;;15.80;33.90;;;;;;5015128;28;20049;-64
2021/04/24 11:26:08;;;;;;;3.15;1.20;;;16.50;33.20;;;;;;5019526;28;19931;-64
2021/04/24 11:28:57;;;;;;;4.10;1.63;;;15.50;30.50;;;;;;5008160;28;20029;-64
2021/04/24 11:31:45;;;;;;;1.67;1.05;;;15.50;29.80;;;;;;5020621;28;20038;-64
2021/04/24 11:34:33;;;;;;;4.20;1.40;;;15.00;31.30;;;;;;5011456;28;20022;-64
2021/04/24 11:37:50;;;;;;;3.05;1.58;;;15.50;32.00;;;;;;5018474;28;20029;-64
2021/04/24 11:40:20;;;;;;;3.33;1.58;;;14.80;32.10;;;;;;5021404;28;20402;-64
2021/04/24 11:43:05;;;;;;;4.60;1.45;;;15.90;31.60;;;;;;5016979;28;20415;-64
2021/04/24 11:45:53;;;;;;;2.78;1.10;;;16.70;30.50;;;;;;5019189;28;20030;-64
2021/04/24 11:48:47;;;;;;;3.47;1.27;;;16.60;31.20;;;;;;5011214;28;20561;-63
2021/04/24 11:51:33;;;;;;;3.85;1.50;;;15.70;30.00;;;;;;5015219;28;20103;-64
2021/04/24 11:53:59;;;;;;;4.10;1.60;;;16.60;29.80;;;;;;5020086;28;20115;-64
2021/04/24 11:56:25;;;;;;;4.70;1.35;;;16.00;29.30;;;;;;5013622;28;20033;-66
2021/04/24 11:58:51;;;;;;;2.60;1.27;;;16.20;30.50;;;;;;5026976;28;20030;-63
2021/04/24 12:01:24;;;;;;;4.15;1.70;;;16.40;29.50;;;;;;5018258;28;20033;-63
2021/04/24 12:03:51;;;;;;;3.83;1.55;;;16.60;30.20;;;;;;5003382;28;20577;-64
2021/04/24 12:06:41;;;;;;;3.88;1.20;;;17.10;30.40;;;;;;5018962;28;20045;-63
2021/04/24 12:09:11;;;;;;;1.98;1.10;;;16.00;29.80;;;;;;5017303;28;20393;-60
2021/04/24 12:11:37;;;;;;;4.03;1.47;;;16.60;30.10;;;;;;5019387;28;20025;-60
2021/04/24 12:14:03;;;;;;;2.60;1.48;;;16.70;29.80;;;;;;5018918;28;20464;-60
2021/04/24 12:16:44;;;;;;;3.97;1.30;;;16.50;29.80;;;;;;5023604;28;20072;-60
2021/04/24 12:19:32;;;;;;;4.00;1.50;;;16.80;29.50;;;;;;5016481;28;20025;-60
2021/04/24 12:22:05;;;;;;;3.95;1.40;;;17.60;29.50;;;;;;5017977;28;20482;-59
2021/04/24 12:24:32;;;;;;;2.30;1.13;;;17.50;26.90;;;;;;5018427;28;20386;-59
2021/04/24 12:26:57;;;;;;;5.53;1.55;;;17.40;29.90;;;;;;5021256;28;20063;-60
2021/04/24 12:29:43;;;;;;;2.83;1.35;;;18.00;28.40;;;;;;5019605;28;20053;-59
2021/04/24 12:32:14;;;;;;;3.90;1.27;;;17.20;28.00;;;;;;5016601;28;20329;-61
2021/04/24 12:34:40;;;;;;;5.50;1.48;;;17.10;26.20;;;;;;5019930;28;20021;-62
2021/04/24 12:37:08;;;;;;;3.97;1.27;;;16.80;27.50;;;;;;5015696;28;20022;-62
2021/04/24 12:39:35;;;;;;;3.22;1.45;;;18.10;27.70;;;;;;5017235;28;20142;-61
2021/04/24 12:42:03;;;;;;;3.30;1.17;;;18.10;25.50;;;;;;5020454;28;20025;-62
2021/04/24 12:44:31;;;;;;;2.75;1.40;;;17.60;27.40;;;;;;5020403;28;20518;-62
2021/04/24 12:46:56;;;;;;;4.10;1.35;;;17.50;27.60;;;;;;5021636;28;20076;-63
2021/04/24 12:49:22;;;;;;;8.95;1.58;;;18.00;27.40;;;;;;5017620;28;20021;-62
2021/04/24 12:52:05;;;;;;;2.35;1.13;;;18.00;29.10;;;;;;5018836;28;20025;-62